createdAt,value
2022-11-06T00:03:47.692Z,13.83
2022-11-06T00:08:45.614Z,14.53
2022-11-06T00:13:47.547Z,10.73
2022-11-06T00:18:45.800Z,12.80
2022-11-06T00:23:44.781Z,10.80
2022-11-06T00:28:45.028Z,12.77
2022-11-06T00:33:43.272Z,12.63
2022-11-06T00:38:41.597Z,17.17
2022-11-06T00:43:39.551Z,15.27
2022-11-06T00:48:39.818Z,10.40
2022-11-06T00:53:38.021Z,21.83
2022-11-06T00:58:36.224Z,7.70
2022-11-06T01:03:34.096Z,16.20
2022-11-06T01:08:34.049Z,13.23
2022-11-06T01:13:31.963Z,12.67
2022-11-06T01:18:29.855Z,11.97
2022-11-06T01:23:27.765Z,18.10
2022-11-06T01:28:27.269Z,19.77
2022-11-06T01:33:25.292Z,12.60
2022-11-06T01:38:23.202Z,15.93
2022-11-06T01:43:23.392Z,21.67
2022-11-06T01:48:28.251Z,12.10
2022-11-06T01:53:27.252Z,18.80
2022-11-06T01:58:27.758Z,21.77
2022-11-06T02:03:27.303Z,12.20
2022-11-06T02:08:26.437Z,14.17
2022-11-06T02:13:34.566Z,11.43
2022-11-06T02:18:56.828Z,16.37
2022-11-06T02:24:10.148Z,16.20
2022-11-06T02:29:14.322Z,12.80
2022-11-06T02:34:16.366Z,13.10
2022-11-06T02:39:17.973Z,14.83
2022-11-06T02:44:21.757Z,17.17
2022-11-06T02:49:25.629Z,20.03
2022-11-06T02:54:27.380Z,15.67
2022-11-06T02:59:29.401Z,17.27
2022-11-06T03:04:34.507Z,12.63
2022-11-06T03:09:34.571Z,12.93
2022-11-06T03:14:39.668Z,13.57
2022-11-06T03:19:50.012Z,13.67
2022-11-06T03:24:56.849Z,15.83
2022-11-06T03:30:01.342Z,18.03
2022-11-06T03:35:03.901Z,12.73
2022-11-06T03:40:06.103Z,17.20
2022-11-06T03:45:08.892Z,12.70
2022-11-06T03:50:13.099Z,19.43
2022-11-06T03:55:15.915Z,14.10
2022-11-06T04:00:20.367Z,14.53
2022-11-06T04:05:22.068Z,15.70
2022-11-06T04:10:37.934Z,20.57
2022-11-06T04:15:43.656Z,20.00
2022-11-06T04:21:07.601Z,14.47
2022-11-06T04:26:31.485Z,24.90
2022-11-06T04:31:38.381Z,13.83
2022-11-06T04:36:44.564Z,15.60
2022-11-06T04:41:48.128Z,16.70
2022-11-06T04:46:53.255Z,14.83
2022-11-06T04:51:52.238Z,20.00
2022-11-06T04:56:50.630Z,18.43
2022-11-06T05:01:50.035Z,13.73
2022-11-06T05:06:48.091Z,15.20
2022-11-06T05:11:46.153Z,13.30
2022-11-06T05:16:44.646Z,16.13
2022-11-06T05:22:01.464Z,14.47
2022-11-06T05:26:59.985Z,14.17
2022-11-06T05:31:57.996Z,20.37
2022-11-06T05:36:58.363Z,15.00
2022-11-06T05:41:56.417Z,12.73
2022-11-06T05:46:54.639Z,16.53
2022-11-06T05:51:52.535Z,11.90
2022-11-06T05:56:51.812Z,11.10
2022-11-06T06:01:49.821Z,17.90
2022-11-06T06:06:48.126Z,17.70
2022-11-06T06:11:46.024Z,14.50
2022-11-06T06:16:45.281Z,11.50
2022-11-06T06:21:43.197Z,19.67
2022-11-06T06:26:41.076Z,12.80
2022-11-06T06:31:39.003Z,12.60
2022-11-06T06:36:38.324Z,14.87
2022-11-06T06:41:36.190Z,16.53
2022-11-06T06:46:34.100Z,22.67
2022-11-06T06:51:32.009Z,13.00
2022-11-06T06:56:31.253Z,11.80
2022-11-06T07:01:29.315Z,13.70
2022-11-06T07:06:27.377Z,12.50
2022-11-06T07:11:25.267Z,14.60
2022-11-06T07:16:25.326Z,16.70
2022-11-06T07:21:23.317Z,18.80
2022-11-06T07:26:21.255Z,12.00
2022-11-06T07:31:19.157Z,18.83
2022-11-06T07:36:18.479Z,14.37
2022-11-06T07:41:16.855Z,20.17
2022-11-06T07:46:14.863Z,17.93
2022-11-06T07:51:12.887Z,14.30
2022-11-06T07:56:12.309Z,11.00
2022-11-06T08:01:18.586Z,13.37
2022-11-06T08:06:17.232Z,13.33
2022-11-06T08:11:16.501Z,15.43
2022-11-06T08:16:15.811Z,12.83
2022-11-06T08:21:13.723Z,18.07
2022-11-06T08:26:12.479Z,20.47
2022-11-06T08:31:12.020Z,14.63
2022-11-06T08:36:10.994Z,11.80
2022-11-06T08:41:11.171Z,14.03
2022-11-06T08:46:11.701Z,10.83
2022-11-06T08:51:09.636Z,10.70
2022-11-06T08:56:08.300Z,12.10
2022-11-06T09:01:06.260Z,9.93
2022-11-06T09:06:08.556Z,8.20
2022-11-06T09:11:08.435Z,11.40
2022-11-06T09:16:12.712Z,9.97
2022-11-06T09:21:13.780Z,8.40
2022-11-06T09:26:11.659Z,9.17
2022-11-06T09:31:09.712Z,8.23
2022-11-06T09:36:08.636Z,7.37
2022-11-06T09:41:08.131Z,7.83
2022-11-06T09:46:13.912Z,9.00
2022-11-06T09:51:18.783Z,9.53
2022-11-06T09:56:21.711Z,13.20
2022-11-06T10:01:27.085Z,9.20
2022-11-06T10:06:26.343Z,9.53
2022-11-06T10:11:41.101Z,9.83
2022-11-06T10:16:47.082Z,6.20
2022-11-06T10:21:49.335Z,7.13
2022-11-06T10:26:53.915Z,7.10
2022-11-06T10:32:05.225Z,8.67
2022-11-06T10:37:06.862Z,6.30
2022-11-06T10:42:11.865Z,8.83
2022-11-06T10:47:18.949Z,8.90
2022-11-06T10:52:34.908Z,9.13
2022-11-06T10:57:42.161Z,7.20
2022-11-06T11:02:44.755Z,8.50
2022-11-06T11:07:43.981Z,6.37
2022-11-06T11:12:46.999Z,5.07
2022-11-06T11:18:05.720Z,11.27
2022-11-06T11:23:08.318Z,11.13
2022-11-06T11:28:07.831Z,8.37
2022-11-06T11:33:14.212Z,6.93
2022-11-06T11:38:15.781Z,8.30
2022-11-06T11:43:25.543Z,4.30
2022-11-06T11:48:23.418Z,7.30
2022-11-06T11:53:23.091Z,6.30
2022-11-06T11:58:24.896Z,4.20
2022-11-06T12:03:23.716Z,9.07
2022-11-06T12:08:25.686Z,5.80
2022-11-06T12:13:26.402Z,5.50
2022-11-06T12:18:29.338Z,3.50
2022-11-06T12:23:33.806Z,9.67
2022-11-06T12:28:36.606Z,9.20
2022-11-06T12:34:04.432Z,5.10
2022-11-06T12:38:59.173Z,3.33
2022-11-06T12:43:59.914Z,3.63
2022-11-06T12:49:14.419Z,7.37
2022-11-06T12:54:37.549Z,4.93
2022-11-06T12:59:50.744Z,4.57
2022-11-06T13:04:55.406Z,3.07
2022-11-06T13:10:04.411Z,7.47
2022-11-06T13:15:14.140Z,4.37
2022-11-06T13:20:20.014Z,3.37
2022-11-06T13:25:23.210Z,7.07
2022-11-06T13:30:24.354Z,4.30
2022-11-06T13:35:23.677Z,8.00
2022-11-06T13:40:28.807Z,4.63
2022-11-06T13:45:33.619Z,7.50
2022-11-06T13:50:35.488Z,11.57
2022-11-06T13:55:51.835Z,3.97
2022-11-06T14:01:03.613Z,6.27
2022-11-06T14:06:04.048Z,5.80
2022-11-06T14:11:05.407Z,4.70
2022-11-06T14:16:25.252Z,5.10
2022-11-06T14:21:50.830Z,2.60
2022-11-06T14:26:50.581Z,7.57
2022-11-06T14:32:06.482Z,9.33
2022-11-06T14:37:37.035Z,4.80
2022-11-06T14:42:39.049Z,8.43
2022-11-06T14:47:41.175Z,3.70
2022-11-06T14:52:48.248Z,6.67
2022-11-06T14:57:49.416Z,5.90
2022-11-06T15:02:49.755Z,6.20
2022-11-06T15:08:06.000Z,7.00
2022-11-06T15:13:12.637Z,3.70
2022-11-06T15:18:15.744Z,4.30
2022-11-06T15:23:24.584Z,4.20
2022-11-06T15:28:26.629Z,8.63
2022-11-06T15:33:33.319Z,4.97
2022-11-06T15:38:40.063Z,6.83
2022-11-06T15:43:38.413Z,8.30
2022-11-06T15:48:37.894Z,9.40
2022-11-06T15:53:40.637Z,4.90
2022-11-06T15:58:39.460Z,5.43
2022-11-06T16:03:49.809Z,4.87
2022-11-06T16:08:48.657Z,3.53
2022-11-06T16:13:47.721Z,6.50
2022-11-06T16:18:49.326Z,7.00
2022-11-06T16:23:50.934Z,9.40
2022-11-06T16:28:50.743Z,6.63
2022-11-06T16:33:57.051Z,6.80
2022-11-06T16:38:55.537Z,12.33
2022-11-06T16:44:29.295Z,10.23
2022-11-06T16:49:37.169Z,10.20
2022-11-06T16:54:35.359Z,14.23
2022-11-06T16:59:33.284Z,9.20
2022-11-06T17:04:31.230Z,9.17
2022-11-06T17:09:32.274Z,9.27
2022-11-06T17:14:32.619Z,7.77
2022-11-06T17:19:31.088Z,14.60
2022-11-06T17:24:36.541Z,9.23
2022-11-06T17:29:36.272Z,4.57
2022-11-06T17:34:34.651Z,5.77
2022-11-06T17:39:34.011Z,5.40
2022-11-06T17:44:31.908Z,8.63
2022-11-06T17:49:29.928Z,9.10
2022-11-06T17:54:30.379Z,6.00
2022-11-06T17:59:29.671Z,7.73
2022-11-06T18:04:30.443Z,6.17
2022-11-06T18:09:28.487Z,9.40
2022-11-06T18:14:29.051Z,8.77
2022-11-06T18:19:27.767Z,10.03
2022-11-06T18:24:25.949Z,9.07
2022-11-06T18:29:24.010Z,8.47
2022-11-06T18:34:23.241Z,6.50
2022-11-06T18:39:21.181Z,10.10
2022-11-06T18:44:19.542Z,10.47
2022-11-06T18:49:17.585Z,10.30
2022-11-06T18:54:16.839Z,10.53
2022-11-06T18:59:19.452Z,10.50
2022-11-06T19:04:17.542Z,10.57
2022-11-06T19:09:16.871Z,9.63
2022-11-06T19:14:14.855Z,8.73
2022-11-06T19:19:13.306Z,10.93
2022-11-06T19:24:11.247Z,12.20
2022-11-06T19:29:10.584Z,11.63
2022-11-06T19:34:09.425Z,13.77
2022-11-06T19:39:08.205Z,14.17
2022-11-06T19:44:06.591Z,14.10
2022-11-06T19:49:07.233Z,11.40
2022-11-06T19:54:06.016Z,19.13
2022-11-06T19:59:04.566Z,20.27
2022-11-06T20:04:02.730Z,18.13
2022-11-06T20:09:02.031Z,14.97
2022-11-06T20:13:59.975Z,14.27
2022-11-06T20:18:59.702Z,19.90
2022-11-06T20:23:58.133Z,17.37
2022-11-06T20:28:57.433Z,16.53
2022-11-06T20:33:57.596Z,21.53
2022-11-06T20:38:58.376Z,18.53
2022-11-06T20:43:57.968Z,19.90
2022-11-06T20:48:57.658Z,19.07
2022-11-06T20:53:55.588Z,15.93
2022-11-06T20:58:55.158Z,18.90
2022-11-06T21:03:56.052Z,21.60
2022-11-06T21:08:54.913Z,20.23
2022-11-06T21:13:54.656Z,20.80
2022-11-06T21:18:54.694Z,20.03
2022-11-06T21:23:53.648Z,19.37
2022-11-06T21:28:52.428Z,20.43
2022-11-06T21:33:51.775Z,19.50
2022-11-06T21:38:51.795Z,19.00
2022-11-06T21:43:49.860Z,20.43
2022-11-06T21:48:48.398Z,19.10
2022-11-06T21:54:05.077Z,23.97
2022-11-06T21:59:06.238Z,20.30
2022-11-06T22:04:04.433Z,22.10
2022-11-06T22:09:03.943Z,18.30
2022-11-06T22:14:05.495Z,18.47
2022-11-06T22:19:04.056Z,29.10
2022-11-06T22:24:02.166Z,20.90
2022-11-06T22:29:01.772Z,21.50
2022-11-06T22:34:01.314Z,18.70
2022-11-06T22:39:00.631Z,20.50
2022-11-06T22:43:59.776Z,24.07
2022-11-06T22:48:59.969Z,19.00
2022-11-06T22:53:58.004Z,21.60
2022-11-06T22:58:57.104Z,16.87
2022-11-06T23:03:56.716Z,21.53
2022-11-06T23:08:56.337Z,19.50
2022-11-06T23:13:55.092Z,22.80
2022-11-06T23:18:53.339Z,21.57
2022-11-06T23:23:51.230Z,20.40
2022-11-06T23:28:50.467Z,20.30
2022-11-06T23:33:48.746Z,23.37
2022-11-06T23:38:46.936Z,22.97
2022-11-06T23:43:44.935Z,24.93
2022-11-06T23:48:44.160Z,24.07
2022-11-06T23:53:42.044Z,22.37
2022-11-06T23:58:40.675Z,20.27
